createdAt,value
2022-10-14T00:00:00.045Z,6.00
2022-10-14T00:01:00.033Z,6.00
2022-10-14T00:02:00.138Z,6.00
2022-10-14T00:03:00.005Z,6.20
2022-10-14T00:03:59.994Z,5.90
2022-10-14T00:04:59.984Z,6.10
2022-10-14T00:06:00.116Z,5.70
2022-10-14T00:06:59.978Z,6.20
2022-10-14T00:08:00.692Z,5.90
2022-10-14T00:08:59.935Z,6.20
2022-10-14T00:09:59.925Z,6.30
2022-10-14T00:10:59.917Z,6.50
2022-10-14T00:11:59.916Z,6.10
2022-10-14T00:12:59.886Z,6.20
2022-10-14T00:13:59.922Z,7.20
2022-10-14T00:14:59.888Z,6.90
2022-10-14T00:15:59.869Z,7.10
2022-10-14T00:16:59.956Z,7.10
2022-10-14T00:17:59.848Z,7.40
2022-10-14T00:18:59.827Z,7.60
2022-10-14T00:19:59.818Z,7.60
2022-10-14T00:20:59.814Z,7.10
2022-10-14T00:21:59.807Z,8.00
2022-10-14T00:22:59.778Z,7.70
2022-10-14T00:23:59.770Z,7.70
2022-10-14T00:24:59.761Z,8.10
2022-10-14T00:25:59.749Z,8.20
2022-10-14T00:26:59.746Z,8.80
2022-10-14T00:27:59.729Z,8.10
2022-10-14T00:28:59.759Z,7.80
2022-10-14T00:29:59.709Z,7.60
2022-10-14T00:30:59.691Z,8.10
2022-10-14T00:31:59.700Z,7.90
2022-10-14T00:32:59.671Z,7.90
2022-10-14T00:33:59.661Z,8.50
2022-10-14T00:34:59.650Z,7.60
2022-10-14T00:35:59.642Z,9.10
2022-10-14T00:36:59.631Z,7.90
2022-10-14T00:37:59.620Z,7.80
2022-10-14T00:38:59.613Z,8.20
2022-10-14T00:39:59.602Z,7.90
2022-10-14T00:40:59.583Z,7.90
2022-10-14T00:41:59.772Z,8.30
2022-10-14T00:42:59.554Z,7.80
2022-10-14T00:43:59.559Z,8.10
2022-10-14T00:44:59.544Z,7.60
2022-10-14T00:45:59.522Z,7.80
2022-10-14T00:46:59.531Z,7.80
2022-10-14T00:47:59.521Z,8.10
2022-10-14T00:48:59.493Z,8.40
2022-10-14T00:49:59.487Z,7.70
2022-10-14T00:50:59.478Z,7.70
2022-10-14T00:51:59.465Z,8.20
2022-10-14T00:52:59.456Z,8.20
2022-10-14T00:53:59.447Z,7.60
2022-10-14T00:54:59.427Z,7.40
2022-10-14T00:55:59.423Z,7.20
2022-10-14T00:56:59.417Z,7.60
2022-10-14T00:57:59.396Z,8.00
2022-10-14T00:58:59.379Z,7.50
2022-10-14T00:59:59.384Z,7.90
2022-10-14T01:00:59.409Z,7.60
2022-10-14T01:01:59.376Z,7.90
2022-10-14T01:02:59.339Z,8.00
2022-10-14T01:03:59.326Z,7.70
2022-10-14T01:04:59.317Z,7.90
2022-10-14T01:05:59.328Z,8.20
2022-10-14T01:06:59.300Z,7.50
2022-10-14T01:07:59.293Z,7.60
2022-10-14T01:08:59.268Z,7.10
2022-10-14T01:09:59.259Z,7.50
2022-10-14T01:10:59.260Z,7.90
2022-10-14T01:12:23.607Z,7.10
2022-10-14T01:13:00.221Z,6.70
2022-10-14T01:13:59.222Z,7.00
2022-10-14T01:14:59.226Z,7.70
2022-10-14T01:15:59.190Z,7.00
2022-10-14T01:16:59.204Z,7.00
2022-10-14T01:17:59.179Z,7.10
2022-10-14T01:18:59.159Z,6.60
2022-10-14T01:19:59.171Z,7.40
2022-10-14T01:20:59.159Z,7.30
2022-10-14T01:22:22.419Z,6.70
2022-10-14T01:22:59.124Z,7.10
2022-10-14T01:23:59.123Z,7.10
2022-10-14T01:24:59.095Z,7.10
2022-10-14T01:25:59.091Z,7.20
2022-10-14T01:26:59.094Z,7.00
2022-10-14T01:27:59.063Z,7.30
2022-10-14T01:28:59.097Z,6.90
2022-10-14T01:29:59.046Z,7.00
2022-10-14T01:30:59.025Z,7.10
2022-10-14T01:31:59.033Z,7.80
2022-10-14T01:32:59.016Z,6.90
2022-10-14T01:33:58.993Z,7.40
2022-10-14T01:34:58.985Z,7.10
2022-10-14T01:35:58.994Z,6.40
2022-10-14T01:36:58.957Z,7.00
2022-10-14T01:37:58.956Z,7.00
2022-10-14T01:38:58.938Z,6.40
2022-10-14T01:39:58.926Z,6.40
2022-10-14T01:40:58.927Z,6.20
2022-10-14T01:41:58.907Z,6.50
2022-10-14T01:42:58.898Z,6.80
2022-10-14T01:43:58.888Z,6.60
2022-10-14T01:44:59.111Z,6.10
2022-10-14T01:45:59.029Z,6.30
2022-10-14T01:46:59.069Z,6.40
2022-10-14T01:47:58.841Z,6.70
2022-10-14T01:48:58.820Z,6.00
2022-10-14T01:49:58.819Z,7.00
2022-10-14T01:50:58.839Z,6.20
2022-10-14T01:51:58.800Z,6.40
2022-10-14T01:52:58.780Z,6.50
2022-10-14T01:53:58.779Z,6.00
2022-10-14T01:54:58.858Z,5.90
2022-10-14T01:55:58.760Z,6.30
2022-10-14T01:56:58.739Z,5.80
2022-10-14T01:57:58.729Z,5.90
2022-10-14T01:58:58.726Z,6.00
2022-10-14T01:59:58.701Z,5.90
2022-10-14T02:00:58.701Z,6.30
2022-10-14T02:01:58.776Z,6.00
2022-10-14T02:02:58.674Z,6.80
2022-10-14T02:03:58.662Z,5.70
2022-10-14T02:04:58.653Z,6.10
2022-10-14T02:05:58.652Z,5.80
2022-10-14T02:06:58.632Z,5.60
2022-10-14T02:07:58.631Z,6.00
2022-10-14T02:08:58.606Z,5.70
2022-10-14T02:09:58.604Z,5.80
2022-10-14T02:11:02.171Z,5.50
2022-10-14T02:11:58.583Z,5.90
2022-10-14T02:12:58.567Z,5.30
2022-10-14T02:13:58.573Z,6.00
2022-10-14T02:14:58.543Z,5.60
2022-10-14T02:15:58.555Z,5.90
2022-10-14T02:16:58.516Z,5.40
2022-10-14T02:17:58.505Z,5.30
2022-10-14T02:18:58.486Z,5.70
2022-10-14T02:19:58.487Z,5.80
2022-10-14T02:20:58.486Z,6.20
2022-10-14T02:21:58.496Z,5.50
2022-10-14T02:22:58.448Z,6.10
2022-10-14T02:23:58.556Z,5.50
2022-10-14T02:24:58.442Z,5.50
2022-10-14T02:25:58.427Z,5.50
2022-10-14T02:26:58.416Z,5.50
2022-10-14T02:27:58.397Z,5.80
2022-10-14T02:28:58.417Z,5.70
2022-10-14T02:29:58.409Z,5.50
2022-10-14T02:30:58.388Z,5.20
2022-10-14T02:31:58.361Z,5.80
2022-10-14T02:32:58.340Z,5.50
2022-10-14T02:33:58.424Z,5.40
2022-10-14T02:34:58.319Z,6.10
2022-10-14T02:35:58.321Z,5.80
2022-10-14T02:36:58.291Z,5.70
2022-10-14T02:37:58.291Z,5.70
2022-10-14T02:38:58.270Z,5.60
2022-10-14T02:39:58.260Z,5.70
2022-10-14T02:40:58.270Z,5.30
2022-10-14T02:41:58.253Z,5.50
2022-10-14T02:42:58.220Z,5.40
2022-10-14T02:43:58.231Z,5.20
2022-10-14T02:44:58.211Z,4.60
2022-10-14T02:45:58.202Z,5.00
2022-10-14T02:46:58.183Z,5.10
2022-10-14T02:47:58.174Z,4.90
2022-10-14T02:48:58.157Z,4.90
2022-10-14T02:49:58.167Z,5.40
2022-10-14T02:50:58.178Z,5.10
2022-10-14T02:51:58.132Z,5.40
2022-10-14T02:52:58.125Z,5.20
2022-10-14T02:53:58.113Z,5.00
2022-10-14T02:54:58.084Z,4.40
2022-10-14T02:55:58.104Z,5.00
2022-10-14T02:56:58.084Z,4.50
2022-10-14T02:57:58.063Z,4.30
2022-10-14T02:58:58.056Z,4.60
2022-10-14T02:59:58.164Z,4.40
2022-10-14T03:00:58.040Z,4.80
2022-10-14T03:01:58.093Z,4.00
2022-10-14T03:02:58.025Z,4.00
2022-10-14T03:03:57.996Z,4.10
2022-10-14T03:04:58.071Z,3.80
2022-10-14T03:05:57.996Z,4.00
2022-10-14T03:06:57.959Z,3.90
2022-10-14T03:07:57.959Z,3.60
2022-10-14T03:08:57.938Z,3.30
2022-10-14T03:09:57.948Z,3.30
2022-10-14T03:10:57.957Z,3.60
2022-10-14T03:11:57.924Z,3.10
2022-10-14T03:12:57.918Z,2.80
2022-10-14T03:13:57.878Z,3.10
2022-10-14T03:14:57.869Z,2.70
2022-10-14T03:15:57.876Z,2.90
2022-10-14T03:16:57.858Z,3.00
2022-10-14T03:17:57.893Z,2.80
2022-10-14T03:18:57.821Z,3.00
2022-10-14T03:19:57.820Z,2.40
2022-10-14T03:20:57.810Z,2.50
2022-10-14T03:21:57.791Z,2.10
2022-10-14T03:22:57.782Z,2.40
2022-10-14T03:23:57.772Z,2.20
2022-10-14T03:24:57.793Z,2.30
2022-10-14T03:25:57.764Z,2.10
2022-10-14T03:26:57.742Z,2.10
2022-10-14T03:27:57.731Z,2.30
2022-10-14T03:28:57.778Z,2.10
2022-10-14T03:29:57.844Z,1.90
2022-10-14T03:30:57.702Z,2.10
2022-10-14T03:31:57.691Z,2.00
2022-10-14T03:32:57.671Z,1.90
2022-10-14T03:33:57.663Z,2.10
2022-10-14T03:34:57.645Z,2.30
2022-10-14T03:35:57.655Z,2.20
2022-10-14T03:36:57.624Z,2.30
2022-10-14T03:37:57.625Z,2.20
2022-10-14T03:38:57.606Z,2.20
2022-10-14T03:39:57.668Z,2.20
2022-10-14T03:40:57.601Z,2.10
2022-10-14T03:41:57.607Z,2.10
2022-10-14T03:42:57.554Z,2.40
2022-10-14T03:43:57.597Z,2.10
2022-10-14T03:44:57.576Z,2.50
2022-10-14T03:45:57.535Z,2.20
2022-10-14T03:46:57.542Z,2.50
2022-10-14T03:47:57.508Z,2.40
2022-10-14T03:48:57.497Z,2.80
2022-10-14T03:49:57.564Z,2.40
2022-10-14T03:50:57.487Z,2.50
2022-10-14T03:51:57.486Z,2.30
2022-10-14T03:52:57.447Z,2.50
2022-10-14T03:53:57.608Z,2.20
2022-10-14T03:54:57.431Z,2.80
2022-10-14T03:55:57.521Z,2.90
2022-10-14T03:56:57.408Z,2.90
2022-10-14T03:57:57.413Z,2.40
2022-10-14T03:58:57.747Z,2.60
2022-10-14T03:59:58.326Z,2.50
2022-10-14T04:00:57.361Z,2.60
2022-10-14T04:01:57.398Z,2.70
2022-10-14T04:02:57.339Z,2.60
2022-10-14T04:03:57.735Z,2.60
2022-10-14T04:05:00.929Z,2.80
2022-10-14T04:05:57.323Z,2.50
2022-10-14T04:06:57.291Z,2.80
2022-10-14T04:07:57.287Z,2.70
2022-10-14T04:08:57.273Z,2.60
2022-10-14T04:09:57.304Z,2.70
2022-10-14T04:10:57.262Z,3.00
2022-10-14T04:11:57.866Z,2.90
2022-10-14T04:12:57.223Z,3.00
2022-10-14T04:13:57.221Z,3.50
2022-10-14T04:14:57.243Z,3.40
2022-10-14T04:15:57.205Z,3.40
2022-10-14T04:16:57.194Z,3.20
2022-10-14T04:17:57.176Z,3.20
2022-10-14T04:18:57.162Z,3.10
2022-10-14T04:19:57.179Z,3.50
2022-10-14T04:20:57.373Z,3.40
2022-10-14T04:21:57.123Z,3.50
2022-10-14T04:22:57.116Z,3.60
2022-10-14T04:23:57.109Z,3.40
2022-10-14T04:24:57.086Z,3.40
2022-10-14T04:25:57.164Z,3.40
2022-10-14T04:26:57.068Z,3.80
2022-10-14T04:27:57.065Z,3.80
2022-10-14T04:28:57.117Z,4.20
2022-10-14T04:29:57.068Z,4.10
2022-10-14T04:30:57.035Z,3.90
2022-10-14T04:31:57.017Z,4.20
2022-10-14T04:32:57.011Z,4.30
2022-10-14T04:33:56.994Z,4.20
2022-10-14T04:34:56.987Z,4.90
2022-10-14T04:35:56.988Z,4.20
2022-10-14T04:36:56.959Z,4.50
2022-10-14T04:37:56.958Z,4.70
2022-10-14T04:38:56.940Z,4.20
2022-10-14T04:39:56.927Z,4.40
2022-10-14T04:40:56.929Z,4.70
2022-10-14T04:41:56.911Z,5.00
2022-10-14T04:42:56.889Z,4.50
2022-10-14T04:43:56.890Z,4.30
2022-10-14T04:44:56.870Z,4.20
2022-10-14T04:45:56.876Z,4.40
2022-10-14T04:46:56.953Z,5.00
2022-10-14T04:47:56.839Z,4.90
2022-10-14T04:48:56.831Z,4.20
2022-10-14T04:49:56.821Z,4.50
2022-10-14T04:50:56.831Z,4.30
2022-10-14T04:51:56.914Z,4.60
2022-10-14T04:52:56.781Z,4.70
2022-10-14T04:53:56.892Z,4.00
2022-10-14T04:54:56.751Z,4.30
2022-10-14T04:55:56.783Z,4.80
2022-10-14T04:56:56.734Z,4.60
2022-10-14T04:57:56.732Z,4.70
2022-10-14T04:58:56.721Z,4.80
2022-10-14T04:59:56.756Z,4.70
2022-10-14T05:00:56.704Z,4.70
2022-10-14T05:01:56.807Z,5.00
2022-10-14T05:02:56.674Z,4.70
2022-10-14T05:03:56.673Z,4.90
2022-10-14T05:04:56.667Z,5.10
2022-10-14T05:05:56.654Z,5.00
2022-10-14T05:06:56.624Z,4.80
2022-10-14T05:07:56.624Z,4.90
2022-10-14T05:08:56.635Z,5.10
2022-10-14T05:09:57.005Z,5.60
2022-10-14T05:10:56.607Z,5.10
2022-10-14T05:11:56.587Z,5.70
2022-10-14T05:12:56.555Z,5.60
2022-10-14T05:13:56.557Z,5.00
2022-10-14T05:14:56.545Z,5.30
2022-10-14T05:15:56.537Z,5.20
2022-10-14T05:16:56.517Z,5.20
2022-10-14T05:17:56.518Z,5.20
2022-10-14T05:18:56.495Z,5.00
2022-10-14T05:19:56.500Z,5.10
2022-10-14T05:20:56.479Z,5.90
2022-10-14T05:21:56.467Z,5.30
2022-10-14T05:22:56.460Z,5.20
2022-10-14T05:23:56.449Z,5.40
2022-10-14T05:24:56.429Z,5.70
2022-10-14T05:25:56.499Z,5.20
2022-10-14T05:26:56.421Z,5.50
2022-10-14T05:27:56.398Z,5.50
2022-10-14T05:28:56.450Z,5.50
2022-10-14T05:29:56.382Z,5.30
2022-10-14T05:30:56.371Z,5.20
2022-10-14T05:31:56.358Z,5.30
2022-10-14T05:32:56.343Z,5.50
2022-10-14T05:33:56.331Z,5.30
2022-10-14T05:34:56.323Z,5.30
2022-10-14T05:35:59.886Z,5.40
2022-10-14T05:36:56.291Z,5.10
2022-10-14T05:37:59.488Z,5.20
2022-10-14T05:38:57.274Z,4.70
2022-10-14T05:39:56.261Z,5.30
2022-10-14T05:40:56.269Z,5.10
2022-10-14T05:41:56.242Z,5.20
2022-10-14T05:42:56.239Z,5.10
2022-10-14T05:43:56.214Z,4.90
2022-10-14T05:44:56.213Z,5.20
2022-10-14T05:45:56.201Z,4.90
2022-10-14T05:46:56.192Z,5.10
2022-10-14T05:47:56.178Z,5.00
2022-10-14T05:48:56.163Z,5.00
2022-10-14T05:49:56.189Z,4.70
2022-10-14T05:50:56.156Z,4.70
2022-10-14T05:51:56.135Z,4.50
2022-10-14T05:52:56.135Z,4.50
2022-10-14T05:53:56.107Z,4.30
2022-10-14T05:54:56.171Z,4.30
2022-10-14T05:55:56.097Z,4.50
2022-10-14T05:56:56.076Z,4.80
2022-10-14T05:57:56.059Z,4.90
2022-10-14T05:58:56.063Z,4.80
2022-10-14T05:59:56.046Z,4.80
2022-10-14T06:00:56.052Z,4.80
2022-10-14T06:01:56.019Z,4.90
2022-10-14T06:02:56.028Z,4.50
2022-10-14T06:03:55.987Z,5.00
2022-10-14T06:04:55.989Z,4.80
2022-10-14T06:05:55.979Z,4.70
2022-10-14T06:06:55.970Z,4.70
2022-10-14T06:07:55.949Z,5.00
2022-10-14T06:08:55.952Z,5.10
2022-10-14T06:09:55.927Z,4.80
2022-10-14T06:10:55.919Z,4.90
2022-10-14T06:11:55.920Z,5.10
2022-10-14T06:12:55.899Z,5.00
2022-10-14T06:13:55.880Z,5.10
2022-10-14T06:14:55.880Z,5.50
2022-10-14T06:15:55.949Z,5.30
2022-10-14T06:16:55.884Z,5.30
2022-10-14T06:17:55.841Z,5.30
2022-10-14T06:18:55.829Z,5.40
2022-10-14T06:19:55.812Z,5.70
2022-10-14T06:20:55.822Z,5.50
2022-10-14T06:21:55.793Z,5.60
2022-10-14T06:22:55.782Z,5.60
2022-10-14T06:23:55.774Z,5.50
2022-10-14T06:24:58.305Z,5.40
2022-10-14T06:25:55.764Z,5.10
2022-10-14T06:26:55.743Z,5.30
2022-10-14T06:27:55.723Z,5.30
2022-10-14T06:28:55.862Z,5.60
2022-10-14T06:29:55.715Z,5.60
2022-10-14T06:30:55.731Z,5.70
2022-10-14T06:31:55.690Z,5.80
2022-10-14T06:32:55.681Z,5.90
2022-10-14T06:33:55.656Z,5.50
2022-10-14T06:34:55.655Z,5.70
2022-10-14T06:35:55.675Z,5.70
2022-10-14T06:36:59.775Z,5.90
2022-10-14T06:37:56.616Z,6.00
2022-10-14T06:38:55.615Z,6.00
2022-10-14T06:39:55.596Z,6.00
2022-10-14T06:40:55.605Z,6.20
2022-10-14T06:41:55.577Z,6.40
2022-10-14T06:42:55.558Z,6.00
2022-10-14T06:43:55.559Z,6.70
2022-10-14T06:44:55.558Z,6.60
2022-10-14T06:45:55.528Z,6.50
2022-10-14T06:46:55.779Z,6.60
2022-10-14T06:47:55.508Z,7.10
2022-10-14T06:48:55.497Z,6.50
2022-10-14T06:49:55.480Z,7.10
2022-10-14T06:50:55.490Z,6.50
2022-10-14T06:51:55.605Z,6.70
2022-10-14T06:52:55.452Z,7.40
2022-10-14T06:53:55.442Z,7.30
2022-10-14T06:54:55.489Z,7.40
2022-10-14T06:55:55.439Z,7.00
2022-10-14T06:56:55.506Z,7.40
2022-10-14T06:57:55.416Z,7.50
2022-10-14T06:58:55.389Z,7.20
2022-10-14T06:59:55.389Z,8.30
2022-10-14T07:00:55.361Z,7.20
2022-10-14T07:01:55.461Z,7.80
2022-10-14T07:02:55.540Z,7.40
2022-10-14T07:03:56.738Z,7.60
2022-10-14T07:04:55.472Z,7.40
2022-10-14T07:05:55.403Z,7.50
2022-10-14T07:06:55.302Z,7.90
2022-10-14T07:07:55.325Z,7.70
2022-10-14T07:08:55.280Z,7.70
2022-10-14T07:09:55.267Z,7.70
2022-10-14T07:10:55.331Z,7.40
2022-10-14T07:11:55.264Z,7.80
2022-10-14T07:12:55.405Z,7.90
2022-10-14T07:13:55.224Z,8.00
2022-10-14T07:14:55.244Z,8.10
2022-10-14T07:15:55.204Z,8.00
2022-10-14T07:16:55.244Z,8.50
2022-10-14T07:17:55.176Z,9.00
2022-10-14T07:18:55.165Z,7.90
2022-10-14T07:19:55.163Z,7.90
2022-10-14T07:20:55.171Z,8.80
2022-10-14T07:21:55.177Z,8.10
2022-10-14T07:22:55.117Z,8.30
2022-10-14T07:23:55.106Z,10.00
2022-10-14T07:24:55.119Z,8.60
2022-10-14T07:25:55.098Z,8.90
2022-10-14T07:26:55.141Z,8.80
2022-10-14T07:27:55.066Z,8.90
2022-10-14T07:28:55.110Z,9.10
2022-10-14T07:29:55.057Z,8.80
2022-10-14T07:30:55.027Z,8.80
2022-10-14T07:31:55.037Z,8.30
2022-10-14T07:32:55.010Z,8.70
2022-10-14T07:33:55.009Z,8.50
2022-10-14T07:34:54.988Z,9.80
2022-10-14T07:35:54.979Z,8.80
2022-10-14T07:36:54.969Z,8.30
2022-10-14T07:37:54.961Z,9.20
2022-10-14T07:38:54.970Z,9.00
2022-10-14T07:39:54.938Z,9.50
2022-10-14T07:40:54.921Z,9.40
2022-10-14T07:41:54.933Z,9.60
2022-10-14T07:42:54.910Z,8.90
2022-10-14T07:43:54.890Z,9.10
2022-10-14T07:44:54.884Z,9.80
2022-10-14T07:45:54.881Z,9.30
2022-10-14T07:46:54.872Z,9.00
2022-10-14T07:47:54.854Z,9.50
2022-10-14T07:48:57.130Z,9.20
2022-10-14T07:49:54.834Z,9.00
2022-10-14T07:50:54.822Z,9.70
2022-10-14T07:51:54.834Z,9.10
2022-10-14T07:52:57.775Z,9.00
2022-10-14T07:53:56.069Z,8.70
2022-10-14T07:54:54.763Z,8.80
2022-10-14T07:55:54.783Z,8.90
2022-10-14T07:56:54.753Z,8.80
2022-10-14T07:57:54.747Z,8.80
2022-10-14T07:58:54.725Z,9.10
2022-10-14T07:59:54.726Z,9.00
2022-10-14T08:00:54.727Z,8.30
2022-10-14T08:01:54.796Z,8.50
2022-10-14T08:02:54.686Z,8.40
2022-10-14T08:03:54.711Z,8.30
2022-10-14T08:04:56.370Z,8.80
2022-10-14T08:05:55.676Z,8.20
2022-10-14T08:06:54.636Z,7.80
2022-10-14T08:07:54.638Z,7.90
2022-10-14T08:08:54.619Z,7.80
2022-10-14T08:09:54.610Z,7.90
2022-10-14T08:10:54.598Z,7.80
2022-10-14T08:11:54.601Z,7.70
2022-10-14T08:12:54.571Z,7.30
2022-10-14T08:13:54.568Z,7.30
2022-10-14T08:14:54.550Z,8.40
2022-10-14T08:15:54.540Z,7.60
2022-10-14T08:16:54.542Z,8.90
2022-10-14T08:17:54.522Z,9.00
2022-10-14T08:18:54.500Z,8.60
2022-10-14T08:19:54.501Z,10.40
2022-10-14T08:20:54.491Z,8.00
2022-10-14T08:21:54.484Z,6.80
2022-10-14T08:22:54.530Z,7.10
2022-10-14T08:23:54.515Z,6.80
2022-10-14T08:24:54.431Z,6.40
2022-10-14T08:25:54.434Z,6.50
2022-10-14T08:26:54.423Z,6.40
2022-10-14T08:27:54.408Z,6.80
2022-10-14T08:28:54.459Z,6.80
2022-10-14T08:29:54.383Z,6.70
2022-10-14T08:30:54.364Z,6.40
2022-10-14T08:31:54.375Z,6.50
2022-10-14T08:32:54.345Z,6.00
2022-10-14T08:33:54.336Z,6.10
2022-10-14T08:34:54.324Z,5.90
2022-10-14T08:35:54.408Z,6.20
2022-10-14T08:36:54.306Z,5.90
2022-10-14T08:37:54.297Z,6.00
2022-10-14T08:38:54.327Z,5.60
2022-10-14T08:39:54.326Z,5.70
2022-10-14T08:40:55.818Z,5.50
2022-10-14T08:41:54.546Z,5.90
2022-10-14T08:42:54.238Z,5.90
2022-10-14T08:43:54.242Z,5.80
2022-10-14T08:44:54.226Z,5.50
2022-10-14T08:45:54.224Z,5.60
2022-10-14T08:46:54.221Z,5.30
2022-10-14T08:47:54.180Z,5.80
2022-10-14T08:48:54.229Z,5.90
2022-10-14T08:49:54.369Z,5.70
2022-10-14T08:50:54.159Z,5.90
2022-10-14T08:51:54.142Z,5.40
2022-10-14T08:52:54.160Z,5.60
2022-10-14T08:53:54.112Z,5.60
2022-10-14T08:54:54.103Z,5.30
2022-10-14T08:55:54.100Z,5.40
2022-10-14T08:56:54.113Z,5.50
2022-10-14T08:57:54.121Z,5.40
2022-10-14T08:58:54.062Z,5.60
2022-10-14T08:59:54.052Z,5.40
2022-10-14T09:00:54.046Z,5.70
2022-10-14T09:01:54.053Z,5.90
2022-10-14T09:02:54.082Z,5.70
2022-10-14T09:03:54.055Z,5.70
2022-10-14T09:04:54.002Z,6.10
2022-10-14T09:05:53.985Z,5.70
2022-10-14T09:06:53.983Z,6.20
2022-10-14T09:07:53.973Z,5.90
2022-10-14T09:08:53.954Z,6.60
2022-10-14T09:09:53.935Z,6.10
2022-10-14T09:10:53.935Z,6.50
2022-10-14T09:11:53.946Z,5.90
2022-10-14T09:12:53.906Z,8.00
2022-10-14T09:13:53.999Z,5.70
2022-10-14T09:14:53.920Z,6.00
2022-10-14T09:15:53.909Z,6.10
2022-10-14T09:16:54.192Z,6.20
2022-10-14T09:17:53.965Z,7.60
2022-10-14T09:18:54.888Z,6.40
2022-10-14T09:19:53.829Z,6.50
2022-10-14T09:20:53.827Z,6.20
2022-10-14T09:21:53.934Z,6.10
2022-10-14T09:22:53.862Z,6.80
2022-10-14T09:23:53.780Z,6.40
2022-10-14T09:24:53.789Z,6.30
2022-10-14T09:25:53.787Z,6.10
2022-10-14T09:26:53.872Z,7.00
2022-10-14T09:27:53.751Z,7.30
2022-10-14T09:28:53.778Z,6.70
2022-10-14T09:29:53.940Z,7.20
2022-10-14T09:30:53.719Z,7.10
2022-10-14T09:31:53.714Z,7.30
2022-10-14T09:32:53.691Z,6.60
2022-10-14T09:33:53.671Z,8.20
2022-10-14T09:34:53.666Z,7.40
2022-10-14T09:35:53.796Z,6.90
2022-10-14T09:36:53.782Z,6.70
2022-10-14T09:37:53.625Z,6.70
2022-10-14T09:38:53.652Z,7.50
2022-10-14T09:39:53.675Z,6.60
2022-10-14T09:40:53.605Z,6.50
2022-10-14T09:41:53.638Z,6.70
2022-10-14T09:42:53.596Z,6.70
2022-10-14T09:43:53.566Z,7.60
2022-10-14T09:44:53.577Z,6.70
2022-10-14T09:45:53.537Z,7.30
2022-10-14T09:46:53.544Z,7.60
2022-10-14T09:47:53.515Z,7.60
2022-10-14T09:48:53.507Z,6.90
2022-10-14T09:49:53.497Z,6.80
2022-10-14T09:50:53.489Z,6.90
2022-10-14T09:51:53.508Z,7.60
2022-10-14T09:52:53.478Z,6.80
2022-10-14T09:53:53.459Z,7.20
2022-10-14T09:54:53.473Z,8.00
2022-10-14T09:55:53.448Z,7.70
2022-10-14T09:56:53.438Z,8.00
2022-10-14T09:57:53.414Z,7.60
2022-10-14T09:58:53.401Z,7.60
2022-10-14T09:59:53.391Z,7.20
2022-10-14T10:00:53.392Z,7.70
2022-10-14T10:01:53.371Z,7.30
2022-10-14T10:02:53.381Z,7.40
2022-10-14T10:03:53.449Z,8.40
2022-10-14T10:04:53.339Z,8.20
2022-10-14T10:05:53.333Z,7.90
2022-10-14T10:06:53.314Z,7.90
2022-10-14T10:07:53.303Z,7.80
2022-10-14T10:08:53.321Z,7.70
2022-10-14T10:09:53.273Z,7.90
2022-10-14T10:10:53.282Z,7.80
2022-10-14T10:11:53.255Z,7.90
2022-10-14T10:12:53.244Z,8.40
2022-10-14T10:13:53.256Z,7.60
2022-10-14T10:14:53.226Z,7.90
2022-10-14T10:15:53.234Z,7.70
2022-10-14T10:16:53.227Z,7.30
2022-10-14T10:17:53.185Z,8.00
2022-10-14T10:18:53.176Z,8.20
2022-10-14T10:19:53.176Z,7.50
2022-10-14T10:20:53.374Z,7.70
2022-10-14T10:21:53.138Z,8.00
2022-10-14T10:22:53.137Z,8.10
2022-10-14T10:23:53.118Z,8.60
2022-10-14T10:24:53.107Z,7.90
2022-10-14T10:25:53.099Z,8.80
2022-10-14T10:26:53.238Z,8.20
2022-10-14T10:27:53.080Z,8.30
2022-10-14T10:28:53.185Z,8.20
2022-10-14T10:29:53.078Z,8.70
2022-10-14T10:30:53.181Z,8.60
2022-10-14T10:31:53.045Z,8.70
2022-10-14T10:32:53.031Z,8.60
2022-10-14T10:33:53.003Z,8.40
2022-10-14T10:34:53.001Z,8.80
2022-10-14T10:35:53.000Z,9.10
2022-10-14T10:36:52.981Z,8.90
2022-10-14T10:37:52.972Z,8.70
2022-10-14T10:38:52.981Z,8.50
2022-10-14T10:39:53.003Z,9.40
2022-10-14T10:40:52.982Z,9.50
2022-10-14T10:41:52.930Z,8.80
2022-10-14T10:42:52.912Z,8.90
2022-10-14T10:43:52.903Z,9.30
2022-10-14T10:44:52.895Z,11.10
2022-10-14T10:45:52.894Z,9.50
2022-10-14T10:46:52.881Z,10.80
2022-10-14T10:47:52.854Z,9.20
2022-10-14T10:48:52.845Z,9.30
2022-10-14T10:49:52.999Z,8.70
2022-10-14T10:50:52.849Z,8.90
2022-10-14T10:51:53.166Z,9.20
2022-10-14T10:52:52.827Z,8.80
2022-10-14T10:53:52.787Z,9.30
2022-10-14T10:54:52.789Z,9.20
2022-10-14T10:55:52.799Z,12.00
2022-10-14T10:56:52.760Z,15.20
2022-10-14T10:57:52.738Z,10.60
2022-10-14T10:58:52.738Z,17.00
2022-10-14T10:59:52.726Z,9.60
2022-10-14T11:00:53.596Z,12.90
2022-10-14T11:01:53.101Z,13.70
2022-10-14T11:02:53.397Z,11.20
2022-10-14T11:03:53.628Z,12.70
2022-10-14T11:04:53.584Z,10.60
2022-10-14T11:05:55.197Z,10.00
2022-10-14T11:06:52.919Z,10.70
2022-10-14T11:07:53.344Z,9.30
2022-10-14T11:08:52.802Z,9.80
2022-10-14T11:09:53.025Z,10.00
2022-10-14T11:10:54.793Z,9.40
2022-10-14T11:11:52.725Z,9.50
2022-10-14T11:12:52.574Z,10.30
2022-10-14T11:13:52.572Z,9.90
2022-10-14T11:14:53.131Z,9.40
2022-10-14T11:15:52.611Z,9.90
2022-10-14T11:16:52.545Z,9.30
2022-10-14T11:17:52.543Z,9.10
2022-10-14T11:18:52.513Z,9.20
2022-10-14T11:19:52.554Z,9.10
2022-10-14T11:20:52.506Z,9.70
2022-10-14T11:21:52.485Z,11.40
2022-10-14T11:22:52.484Z,10.80
2022-10-14T11:23:52.466Z,9.90
2022-10-14T11:24:52.754Z,9.60
2022-10-14T11:25:52.485Z,8.90
2022-10-14T11:26:52.427Z,9.60
2022-10-14T11:27:52.425Z,9.00
2022-10-14T11:28:52.445Z,10.10
2022-10-14T11:29:52.397Z,9.90
2022-10-14T11:30:52.389Z,9.10
2022-10-14T11:31:52.385Z,9.50
2022-10-14T11:32:52.359Z,9.20
2022-10-14T11:33:52.356Z,9.40
2022-10-14T11:34:52.337Z,8.90
2022-10-14T11:35:52.340Z,8.70
2022-10-14T11:36:52.309Z,9.50
2022-10-14T11:37:52.315Z,9.10
2022-10-14T11:38:52.294Z,9.70
2022-10-14T11:39:52.301Z,8.70
2022-10-14T11:40:52.290Z,9.20
2022-10-14T11:41:52.271Z,9.10
2022-10-14T11:42:52.561Z,9.30
2022-10-14T11:43:52.241Z,9.90
2022-10-14T11:44:52.371Z,9.40
2022-10-14T11:45:52.229Z,9.20
2022-10-14T11:46:53.471Z,9.50
2022-10-14T11:47:52.459Z,9.40
2022-10-14T11:48:52.463Z,9.70
2022-10-14T11:49:52.192Z,9.90
2022-10-14T11:50:52.436Z,10.00
2022-10-14T11:51:52.150Z,9.80
2022-10-14T11:52:52.152Z,9.70
2022-10-14T11:53:52.133Z,9.60
2022-10-14T11:54:52.143Z,9.60
2022-10-14T11:55:52.137Z,9.60
2022-10-14T11:56:52.116Z,9.50
2022-10-14T11:57:52.082Z,9.00
2022-10-14T11:58:52.094Z,9.40
2022-10-14T11:59:52.066Z,9.60
2022-10-14T12:00:52.071Z,9.00
2022-10-14T12:01:52.055Z,8.80
2022-10-14T12:02:52.072Z,10.10
2022-10-14T12:03:52.027Z,9.30
2022-10-14T12:04:52.016Z,9.20
2022-10-14T12:05:52.008Z,9.40
2022-10-14T12:06:52.009Z,9.10
2022-10-14T12:07:51.990Z,8.80
2022-10-14T12:08:51.977Z,9.30
2022-10-14T12:09:55.834Z,10.70
2022-10-14T12:10:52.958Z,10.80
2022-10-14T12:11:51.929Z,9.70
2022-10-14T12:12:51.930Z,9.50
2022-10-14T12:13:51.911Z,8.80
2022-10-14T12:14:51.909Z,9.80
2022-10-14T12:15:52.057Z,8.80
2022-10-14T12:16:51.882Z,10.10
2022-10-14T12:17:52.072Z,8.90
2022-10-14T12:18:51.910Z,9.40
2022-10-14T12:19:51.895Z,9.10
2022-10-14T12:20:51.887Z,9.10
2022-10-14T12:21:51.828Z,8.30
2022-10-14T12:22:51.831Z,8.10
2022-10-14T12:23:51.821Z,8.60
2022-10-14T12:24:51.793Z,8.60
2022-10-14T12:25:51.819Z,9.10
2022-10-14T12:26:51.785Z,9.00
2022-10-14T12:27:51.761Z,8.80
2022-10-14T12:28:53.710Z,9.20
2022-10-14T12:29:51.738Z,8.90
2022-10-14T12:30:51.747Z,8.50
2022-10-14T12:31:51.714Z,8.90
2022-10-14T12:32:51.707Z,9.20
2022-10-14T12:33:51.685Z,9.00
2022-10-14T12:34:51.686Z,8.20
2022-10-14T12:35:51.685Z,8.90
2022-10-14T12:36:51.656Z,8.90
2022-10-14T12:37:51.709Z,8.40
2022-10-14T12:38:51.735Z,8.30
2022-10-14T12:39:51.617Z,8.50
2022-10-14T12:40:51.616Z,8.10
2022-10-14T12:41:51.595Z,9.10
2022-10-14T12:42:51.588Z,8.50
2022-10-14T12:43:52.331Z,8.60
2022-10-14T12:44:51.568Z,9.40
2022-10-14T12:45:51.570Z,8.70
2022-10-14T12:46:51.559Z,12.50
2022-10-14T12:47:51.559Z,12.60
2022-10-14T12:48:51.516Z,8.80
2022-10-14T12:49:51.509Z,9.90
2022-10-14T12:50:51.523Z,10.60
2022-10-14T12:51:51.489Z,8.00
2022-10-14T12:52:51.480Z,8.20
2022-10-14T12:53:51.470Z,7.90
2022-10-14T12:55:51.450Z,7.80
2022-10-14T12:56:51.432Z,8.10
2022-10-14T12:57:51.412Z,8.10
2022-10-14T12:58:51.421Z,9.40
2022-10-14T12:59:51.399Z,8.30
2022-10-14T13:00:51.392Z,8.30
2022-10-14T13:01:51.436Z,7.90
2022-10-14T13:02:51.382Z,7.90
2022-10-14T13:03:51.429Z,8.30
2022-10-14T13:04:51.724Z,8.00
2022-10-14T13:05:51.346Z,8.40
2022-10-14T13:06:51.326Z,8.10
2022-10-14T13:07:51.547Z,7.40
2022-10-14T13:08:51.304Z,8.10
2022-10-14T13:09:51.284Z,8.10
2022-10-14T13:10:51.298Z,7.70
2022-10-14T13:11:51.341Z,7.50
2022-10-14T13:12:51.315Z,7.70
2022-10-14T13:13:51.249Z,7.50
2022-10-14T13:14:51.242Z,7.20
2022-10-14T13:15:51.230Z,7.80
2022-10-14T13:16:51.206Z,7.60
2022-10-14T13:17:51.198Z,7.60